Main page
METAR-TAF:

METAR-TAF

Airports :

Ramsar International Airport

Ramsar, Iran

latitude: 36-54N, longitude: 050-40E, elevation: -23 m

Current weather observation

The report was made 1 hour and 13 minutes ago, at 08:00 UTC
Wind 8 kt from the East/Southeast
Temperature 30°C
Humidity 55%
Pressure 1008 hPa
Visibility 10 km or more
Few clouds at a height of 2800 ft, Towering cumulus.

METAR: OINR 160800Z 12008KT 9999 FEW028TCU 30/20 Q1008

Time: 13:43 (09:13 UTC)


TAF: missing

Weather observations and forecasts of more than 4000 airports (METAR and TAF reports).

The available stations are represented by yellow and red dots on the map.

Hover mouse over dot to see the name of the station.

Then click to see weather observations and forecasts.

To change the map : click on the green buttons with a black cross to zoom in, on the green button with a dash to zoom out, or on the green arrows for adjacent maps.


METAR-TAF: